Time;durP1;ratioP1;P1;durP2;ratioP2;P2;SDS_P1;SDS_P2;PMS_P1;PMS_P2;Temp;Humidity;BMP_temperature;BMP_pressure;BME280_temperature;BME280_humidity;BME280_pressure;Samples;Min_cycle;Max_cycle;Signal;HPM_P1;HPM_P2
2021/12/28 00:01:05;;;;;;;93.00;47.20;;;;;;;-7.04;82.00;96059.30;107906;1282;38430;-75
2021/12/28 00:03:35;;;;;;;91.00;44.20;;;;;;;-7.02;81.80;96056.20;108109;1281;34626;-75
2021/12/28 00:06:03;;;;;;;93.70;46.50;;;;;;;-7.00;81.76;96057.20;108041;1283;38141;-75
2021/12/28 00:08:33;;;;;;;84.10;42.40;;;;;;;-6.98;82.11;96053.50;108193;1282;31020;-75
2021/12/28 00:11:02;;;;;;;95.80;46.50;;;;;;;-7.00;81.70;96053.36;108136;1282;30259;-75
2021/12/28 00:13:32;;;;;;;86.60;42.20;;;;;;;-7.00;81.66;96052.02;107908;1284;41355;-75
2021/12/28 00:16:18;;;;;;;84.70;41.90;;;;;;;-6.99;81.81;96055.02;108058;1283;41062;-75
2021/12/28 00:18:50;;;;;;;75.70;39.40;;;;;;;-7.00;81.43;96056.13;108114;1284;37182;-75
2021/12/28 00:21:19;;;;;;;76.90;39.50;;;;;;;-7.03;81.74;96057.05;108135;1282;38602;-75
2021/12/28 00:23:47;;;;;;;85.10;42.00;;;;;;;-7.07;81.75;96057.44;108032;1283;38958;-75
2021/12/28 00:26:15;;;;;;;89.20;44.30;;;;;;;-7.11;81.60;96059.66;108151;1282;29848;-75
2021/12/28 00:28:45;;;;;;;95.90;48.30;;;;;;;-7.14;81.70;96054.95;108084;1284;38570;-75
2021/12/28 00:31:15;;;;;;;101.50;47.90;;;;;;;-7.16;81.68;96055.84;108086;1283;31934;-75
2021/12/28 00:33:44;;;;;;;91.50;47.70;;;;;;;-7.20;81.77;96055.83;108051;1283;39881;-75
2021/12/28 00:36:14;;;;;;;89.30;47.30;;;;;;;-7.23;81.62;96058.48;108094;1282;33019;-75
2021/12/28 00:38:43;;;;;;;105.20;49.00;;;;;;;-7.23;81.74;96057.73;108117;1282;35097;-75
2021/12/28 00:41:12;;;;;;;99.00;49.70;;;;;;;-7.22;81.71;96055.21;108171;1284;29457;-75
2021/12/28 00:43:40;;;;;;;99.50;47.50;;;;;;;-7.23;81.72;96055.04;108204;1282;31821;-75
2021/12/28 00:46:09;;;;;;;101.00;49.90;;;;;;;-7.23;81.91;96052.91;108167;1283;36142;-75
2021/12/28 00:48:38;;;;;;;95.70;48.50;;;;;;;-7.21;81.96;96052.72;108172;1282;31188;-75
2021/12/28 00:51:07;;;;;;;93.70;46.50;;;;;;;-7.19;81.94;96053.14;108013;1283;38798;-74
2021/12/28 00:53:35;;;;;;;99.20;48.50;;;;;;;-7.14;82.13;96049.37;108127;1284;29911;-74
2021/12/28 00:56:04;;;;;;;100.70;47.40;;;;;;;-7.09;82.00;96055.00;108047;1283;44760;-74
2021/12/28 00:58:33;;;;;;;99.50;48.10;;;;;;;-7.06;82.23;96048.48;108083;1283;39566;-74
2021/12/28 01:01:01;;;;;;;110.90;51.20;;;;;;;-7.06;82.07;96046.42;108137;1281;31315;-74
2021/12/28 01:03:30;;;;;;;95.30;47.70;;;;;;;-7.05;82.23;96047.59;108121;1282;31509;-75
2021/12/28 01:05:58;;;;;;;93.00;45.10;;;;;;;-7.03;82.23;96049.80;108142;1283;26497;-74
2021/12/28 01:08:27;;;;;;;94.30;45.60;;;;;;;-7.03;82.29;96047.20;108046;1283;37542;-75
2021/12/28 01:10:55;;;;;;;93.80;47.00;;;;;;;-7.07;81.96;96051.57;108099;1284;41026;-74
2021/12/28 01:13:25;;;;;;;87.70;45.30;;;;;;;-7.06;82.14;96048.13;107987;1282;37427;-75
2021/12/28 01:15:53;;;;;;;89.10;46.10;;;;;;;-7.07;82.05;96047.13;107893;1283;35248;-74
2021/12/28 01:18:23;;;;;;;83.00;45.20;;;;;;;-7.05;82.05;96048.69;107935;1283;34661;-75
2021/12/28 01:20:54;;;;;;;92.60;46.30;;;;;;;-7.03;82.24;96050.16;107910;1283;31287;-74
2021/12/28 01:23:22;;;;;;;97.00;47.50;;;;;;;-7.04;82.23;96047.96;107910;1283;36699;-74
2021/12/28 01:25:51;;;;;;;86.00;43.50;;;;;;;-7.04;82.40;96047.29;107876;1284;38802;-74
2021/12/28 01:28:19;;;;;;;86.10;43.80;;;;;;;-7.01;82.20;96047.16;107906;1283;41890;-75
2021/12/28 01:30:47;;;;;;;80.70;40.70;;;;;;;-6.96;82.45;96040.83;107904;1283;38238;-75
2021/12/28 01:33:16;;;;;;;83.70;41.30;;;;;;;-6.93;82.31;96033.32;107900;1282;28293;-75
2021/12/28 01:35:44;;;;;;;81.50;40.30;;;;;;;-6.91;82.47;96030.45;107883;1282;34242;-75
2021/12/28 01:38:13;;;;;;;77.00;40.80;;;;;;;-6.88;82.30;96030.98;107915;1284;39801;-74
2021/12/28 01:40:42;;;;;;;81.40;40.00;;;;;;;-6.86;82.23;96029.05;107964;1284;33469;-75
2021/12/28 01:43:12;;;;;;;86.60;41.00;;;;;;;-6.85;82.27;96022.00;107945;1283;36266;-75
2021/12/28 01:45:46;;;;;;;82.20;41.40;;;;;;;-6.83;82.35;96021.49;107915;1284;41264;-75
2021/12/28 01:48:19;;;;;;;82.60;41.70;;;;;;;-6.83;82.09;96019.00;107949;1281;35356;-74
2021/12/28 01:50:49;;;;;;;88.40;44.80;;;;;;;-6.80;82.19;96018.35;107859;1282;37184;-75
2021/12/28 01:53:18;;;;;;;62.60;31.40;;;;;;;-6.79;82.28;96015.77;107912;1284;31912;-75
2021/12/28 01:55:48;;;;;;;90.60;45.50;;;;;;;-6.78;82.13;96011.42;107934;1284;38734;-75
2021/12/28 01:58:16;;;;;;;92.60;46.00;;;;;;;-6.78;82.24;96010.16;108068;1283;38617;-74
2021/12/28 02:00:46;;;;;;;89.00;44.00;;;;;;;-6.77;82.08;96006.23;107918;1281;45764;-75
2021/12/28 02:03:17;;;;;;;92.70;44.20;;;;;;;-6.75;82.14;96007.27;108117;1284;32099;-75
2021/12/28 02:05:45;;;;;;;87.10;43.30;;;;;;;-6.74;82.18;96000.86;108105;1283;39785;-75
2021/12/28 02:08:15;;;;;;;85.60;44.10;;;;;;;-6.72;82.12;95998.64;108078;1283;33022;-75
2021/12/28 02:10:45;;;;;;;88.90;43.80;;;;;;;-6.71;82.20;95994.33;107899;1283;38093;-75
2021/12/28 02:13:12;;;;;;;;;;;;;;;-6.69;82.27;95993.73;107902;1283;39645;-75
2021/12/28 02:15:41;;;;;;;73.90;37.00;;;;;;;-6.68;81.93;95997.09;107995;1283;33903;-75
2021/12/28 02:18:12;;;;;;;84.80;41.70;;;;;;;-6.68;82.24;95992.80;108000;1284;30928;-74
2021/12/28 02:20:41;;;;;;;83.30;43.50;;;;;;;-6.68;82.17;95987.60;107976;1282;36554;-75
2021/12/28 02:23:09;;;;;;;89.70;41.90;;;;;;;-6.67;82.02;95991.75;107997;1283;30136;-74
2021/12/28 02:25:39;;;;;;;89.40;45.80;;;;;;;-6.66;82.13;95988.05;106663;1282;2021827;-74
2021/12/28 02:28:10;;;;;;;90.40;43.70;;;;;;;-6.63;82.29;95991.16;108117;1282;39209;-75
2021/12/28 02:30:41;;;;;;;89.10;43.60;;;;;;;-6.60;82.34;95991.70;107980;1283;29464;-74
2021/12/28 02:33:10;;;;;;;90.30;44.20;;;;;;;-6.58;82.34;95991.78;108205;1284;44449;-75
2021/12/28 02:35:39;;;;;;;85.90;38.80;;;;;;;-6.59;82.20;95990.35;107997;1284;34128;-74
2021/12/28 02:38:11;;;;;;;85.90;44.20;;;;;;;-6.64;81.84;95989.31;108009;1283;36940;-74
2021/12/28 02:40:41;;;;;;;92.70;46.50;;;;;;;-6.64;82.09;95996.13;107993;1283;44776;-74
2021/12/28 02:43:12;;;;;;;88.30;45.60;;;;;;;-6.62;82.17;95993.81;107937;1281;32648;-74
2021/12/28 02:45:50;;;;;;;90.20;43.90;;;;;;;-6.61;82.20;95988.52;107923;1284;36737;-74
2021/12/28 02:48:20;;;;;;;81.40;42.60;;;;;;;-6.64;81.91;95988.00;107882;1283;36244;-74
2021/12/28 02:50:51;;;;;;;84.60;46.00;;;;;;;-6.69;82.04;95989.14;107881;1284;39042;-75
2021/12/28 02:53:22;;;;;;;82.10;44.00;;;;;;;-6.70;82.22;95989.42;107887;1283;40493;-74
2021/12/28 02:55:52;;;;;;;92.30;45.40;;;;;;;-6.70;82.04;95979.27;108093;1282;41049;-75
2021/12/28 02:58:30;;;;;;;88.40;43.60;;;;;;;-6.68;82.31;95975.92;107844;1284;80694;-74
2021/12/28 03:01:03;;;;;;;86.70;45.60;;;;;;;-6.66;82.49;95976.16;107895;1283;41827;-75
2021/12/28 03:03:32;;;;;;;96.80;47.30;;;;;;;-6.64;82.24;95971.27;107949;1283;34609;-74
2021/12/28 03:06:03;;;;;;;92.70;46.90;;;;;;;-6.61;82.33;95961.86;107889;1284;47252;-74
2021/12/28 03:08:33;;;;;;;87.40;46.00;;;;;;;-6.57;82.46;95963.67;107888;1283;44280;-74
2021/12/28 03:11:04;;;;;;;97.10;48.90;;;;;;;-6.54;82.52;95961.79;107897;1283;35445;-74
2021/12/28 03:13:36;;;;;;;102.20;48.70;;;;;;;-6.51;82.25;95959.66;107913;1284;37495;-75
2021/12/28 03:16:05;;;;;;;98.50;46.10;;;;;;;-6.50;82.43;95951.90;107933;1283;31260;-75
2021/12/28 03:18:34;;;;;;;87.90;45.10;;;;;;;-6.49;82.57;95954.36;107912;1284;40639;-75
2021/12/28 03:21:03;;;;;;;106.80;49.00;;;;;;;-6.49;82.57;95954.72;107902;1284;35684;-75
2021/12/28 03:23:31;;;;;;;93.00;45.00;;;;;;;-6.52;82.32;95950.42;107926;1284;30597;-75
2021/12/28 03:25:59;;;;;;;89.10;45.10;;;;;;;-6.57;82.21;95946.42;107882;1284;36191;-75
2021/12/28 03:28:29;;;;;;;84.80;44.00;;;;;;;-6.67;82.13;95946.77;107897;1283;35708;-75
2021/12/28 03:31:00;;;;;;;90.40;44.20;;;;;;;-6.76;82.23;95949.09;107900;1283;38594;-75
2021/12/28 03:33:30;;;;;;;90.30;47.10;;;;;;;-6.82;82.01;95948.09;107913;1283;31757;-75
2021/12/28 03:35:58;;;;;;;;;;;;;;;-6.84;82.27;95949.73;107923;1282;30327;-75
2021/12/28 03:38:26;;;;;;;85.80;41.40;;;;;;;-6.86;81.97;95947.55;107910;1283;38113;-75
2021/12/28 03:40:55;;;;;;;95.10;47.80;;;;;;;-6.90;82.32;95943.73;107912;1284;31996;-75
2021/12/28 03:43:23;;;;;;;85.40;42.20;;;;;;;-6.94;82.29;95940.30;107855;1284;37308;-75
2021/12/28 03:45:52;;;;;;;101.30;47.20;;;;;;;-6.97;82.53;95939.83;107848;1284;40492;-75
2021/12/28 03:48:20;;;;;;;88.00;45.30;;;;;;;-7.01;82.29;95940.01;107890;1284;36783;-75
2021/12/28 03:50:48;;;;;;;93.20;46.70;;;;;;;-7.06;82.30;95936.59;107909;1284;34819;-75
2021/12/28 03:53:16;;;;;;;82.20;45.00;;;;;;;-7.09;82.30;95932.59;107881;1283;40140;-75
2021/12/28 03:55:44;;;;;;;93.10;45.10;;;;;;;-7.13;82.43;95937.44;107883;1284;45133;-75
2021/12/28 03:58:13;;;;;;;100.00;48.50;;;;;;;-7.23;82.38;95932.59;107904;1284;42421;-75
2021/12/28 04:00:44;;;;;;;91.70;47.10;;;;;;;-7.32;82.57;95920.66;107980;1284;43823;-75
2021/12/28 04:03:13;;;;;;;93.40;47.00;;;;;;;-7.37;82.46;95921.95;107906;1284;36016;-75
2021/12/28 04:05:44;;;;;;;93.80;46.10;;;;;;;-7.42;82.42;95923.26;107956;1283;31595;-74
2021/12/28 04:08:13;;;;;;;86.40;47.90;;;;;;;-7.45;82.32;95924.66;108115;1284;38986;-74
2021/12/28 04:10:51;;;;;;;99.30;48.00;;;;;;;-7.47;82.42;95923.83;107961;1283;40263;-75
2021/12/28 04:13:26;;;;;;;82.20;40.70;;;;;;;-7.49;82.31;95920.16;107877;1283;37195;-74
2021/12/28 04:15:54;;;;;;;83.20;42.90;;;;;;;-7.54;82.54;95923.72;107942;1284;45734;-75
2021/12/28 04:18:23;;;;;;;84.20;42.80;;;;;;;-7.59;82.33;95924.81;107928;1283;41798;-74
2021/12/28 04:20:51;;;;;;;82.10;43.80;;;;;;;-7.62;82.32;95923.30;108124;1282;33831;-74
2021/12/28 04:23:19;;;;;;;83.60;42.20;;;;;;;-7.63;82.30;95924.57;108118;1282;33130;-75
2021/12/28 04:25:47;;;;;;;73.40;39.70;;;;;;;-7.63;82.46;95925.55;108079;1284;36538;-75
2021/12/28 04:28:15;;;;;;;81.00;42.10;;;;;;;-7.64;82.57;95925.07;107889;1283;34485;-75
2021/12/28 04:30:43;;;;;;;76.80;40.20;;;;;;;-7.65;82.66;95927.00;107926;1284;38070;-75
2021/12/28 04:33:11;;;;;;;88.00;40.90;;;;;;;-7.69;82.52;95925.17;108021;1283;42589;-75
2021/12/28 04:35:40;;;;;;;83.50;40.10;;;;;;;-7.86;82.11;95927.80;108153;1282;29729;-74
2021/12/28 04:38:08;;;;;;;75.60;38.70;;;;;;;-7.98;82.52;95926.95;108123;1283;71673;-74
2021/12/28 04:40:36;;;;;;;93.40;41.40;;;;;;;-8.03;82.86;95929.36;108121;1283;29960;-74
2021/12/28 04:43:04;;;;;;;90.20;42.80;;;;;;;-8.09;82.95;95930.01;108071;1284;42008;-74
2021/12/28 04:45:33;;;;;;;76.40;40.20;;;;;;;-8.13;83.14;95929.77;107899;1283;32483;-74
2021/12/28 04:48:01;;;;;;;78.80;41.50;;;;;;;-8.15;83.24;95929.31;107924;1284;38772;-75
2021/12/28 04:50:29;;;;;;;83.20;43.30;;;;;;;-8.14;83.74;95928.53;108126;1283;29849;-75
2021/12/28 04:52:58;;;;;;;83.70;44.40;;;;;;;-8.11;83.65;95928.13;107907;1282;38260;-75
2021/12/28 04:55:27;;;;;;;85.20;41.30;;;;;;;-8.12;83.54;95927.05;107897;1284;31519;-75
2021/12/28 04:57:55;;;;;;;83.90;41.00;;;;;;;-8.20;83.50;95927.92;107904;1284;37305;-75
2021/12/28 05:00:23;;;;;;;91.10;43.80;;;;;;;-8.27;83.31;95928.01;107908;1284;36505;-74
2021/12/28 05:02:52;;;;;;;82.80;42.60;;;;;;;-8.29;83.44;95927.19;108099;1283;30512;-75
2021/12/28 05:05:20;;;;;;;78.10;37.30;;;;;;;-8.28;83.22;95932.10;107903;1283;29555;-75
2021/12/28 05:07:48;;;;;;;80.90;39.10;;;;;;;-8.34;83.19;95931.70;107924;1284;32349;-75
2021/12/28 05:10:17;;;;;;;79.80;39.50;;;;;;;-8.40;82.91;95931.45;107884;1284;35736;-75
2021/12/28 05:12:45;;;;;;;79.80;40.40;;;;;;;-8.43;83.09;95928.65;107890;1283;39713;-75
2021/12/28 05:15:13;;;;;;;67.40;34.40;;;;;;;-8.44;83.35;95933.02;107899;1284;33413;-76
2021/12/28 05:17:41;;;;;;;79.60;41.30;;;;;;;-8.44;83.54;95935.90;107953;1284;40476;-75
2021/12/28 05:20:11;;;;;;;83.70;42.00;;;;;;;-8.46;83.77;95936.89;107962;1284;39394;-75
2021/12/28 05:22:40;;;;;;;88.90;43.20;;;;;;;-8.43;83.84;95939.91;108006;1282;29734;-75
2021/12/28 05:25:10;;;;;;;68.70;33.80;;;;;;;-8.39;83.88;95939.88;107951;1284;36390;-75
2021/12/28 05:27:38;;;;;;;81.00;40.80;;;;;;;-8.37;83.99;95937.89;107969;1284;36696;-75
2021/12/28 05:30:10;;;;;;;78.20;40.50;;;;;;;-8.36;84.05;95944.46;107926;1283;47483;-75
2021/12/28 05:32:41;;;;;;;72.10;39.10;;;;;;;-8.34;83.89;95941.20;108079;1284;31862;-75
2021/12/28 05:35:10;;;;;;;83.70;41.70;;;;;;;-8.32;83.85;95941.84;107953;1284;40879;-75
2021/12/28 05:37:38;;;;;;;72.80;38.80;;;;;;;-8.32;83.87;95935.42;108163;1283;34187;-75
2021/12/28 05:40:10;;;;;;;77.40;39.60;;;;;;;-8.33;83.75;95937.13;107892;1284;36233;-75
2021/12/28 05:42:38;;;;;;;80.20;40.40;;;;;;;-8.42;83.86;95940.33;108003;1284;34024;-75
2021/12/28 05:45:08;;;;;;;80.80;40.20;;;;;;;-8.46;84.08;95939.94;108099;1284;37137;-75
2021/12/28 05:47:35;;;;;;;;;;;;;;;-8.51;84.11;95935.73;107944;1283;43738;-75
2021/12/28 05:50:06;;;;;;;85.90;40.40;;;;;;;-8.55;84.38;95931.21;108113;1283;32542;-75
2021/12/28 05:52:34;;;;;;;86.20;41.30;;;;;;;-8.55;84.44;95924.95;107892;1284;35641;-75
2021/12/28 05:55:04;;;;;;;105.00;46.80;;;;;;;-8.55;84.61;95928.36;108049;1278;36115;-75
2021/12/28 05:57:32;;;;;;;79.50;40.70;;;;;;;-8.61;84.45;95932.64;107858;1283;42214;-75
2021/12/28 06:00:00;;;;;;;87.40;41.50;;;;;;;-8.68;84.15;95936.66;108052;1284;34789;-75
2021/12/28 06:02:28;;;;;;;80.70;37.00;;;;;;;-8.67;84.17;95937.65;108035;1283;40265;-75
2021/12/28 06:04:56;;;;;;;95.60;43.90;;;;;;;-8.72;83.89;95940.36;108078;1284;34928;-75
2021/12/28 06:07:27;;;;;;;80.90;39.90;;;;;;;-8.80;83.67;95940.86;108037;1283;42923;-75
2021/12/28 06:09:56;;;;;;;70.60;36.40;;;;;;;-8.83;84.00;95936.84;108080;1284;30485;-75
2021/12/28 06:12:24;;;;;;;74.70;35.80;;;;;;;-8.84;84.20;95931.80;108051;1284;45200;-75
2021/12/28 06:14:53;;;;;;;79.20;36.40;;;;;;;-8.81;84.39;95933.66;108051;1283;33463;-75
2021/12/28 06:17:21;;;;;;;72.60;37.40;;;;;;;-8.75;84.51;95932.39;108062;1282;40193;-75
2021/12/28 06:19:50;;;;;;;68.80;35.00;;;;;;;-8.72;84.49;95936.99;108100;1284;32588;-76
2021/12/28 06:22:18;;;;;;;66.90;34.10;;;;;;;-8.72;84.66;95937.13;108051;1283;31622;-75
2021/12/28 06:24:48;;;;;;;74.80;34.60;;;;;;;-8.71;84.68;95936.55;108052;1284;38793;-75
2021/12/28 06:27:15;;;;;;;;;;;;;;;-8.71;84.64;95937.05;108013;1283;49656;-75
2021/12/28 06:29:44;;;;;;;58.80;28.60;;;;;;;-8.72;84.41;95944.54;108065;1282;36093;-75
2021/12/28 06:32:13;;;;;;;66.10;31.50;;;;;;;-8.73;84.43;95949.42;108141;1278;30150;-75
2021/12/28 06:34:41;;;;;;;61.70;31.10;;;;;;;-8.75;84.29;95951.39;108106;1282;43870;-75
2021/12/28 06:37:09;;;;;;;71.20;31.50;;;;;;;-8.79;84.25;95946.10;108112;1282;38325;-75
2021/12/28 06:39:38;;;;;;;77.00;33.80;;;;;;;-8.78;84.21;95947.80;108045;1284;39694;-75
2021/12/28 06:42:07;;;;;;;65.80;32.40;;;;;;;-8.78;84.32;95951.04;108059;1283;38718;-75
2021/12/28 06:44:36;;;;;;;71.80;34.20;;;;;;;-8.73;84.33;95952.02;108108;1283;29327;-75
2021/12/28 06:47:04;;;;;;;77.80;36.50;;;;;;;-8.70;84.50;95954.23;108035;1283;38502;-75
2021/12/28 06:49:33;;;;;;;64.70;34.20;;;;;;;-8.66;84.42;95953.77;108070;1282;37321;-75
2021/12/28 06:52:01;;;;;;;64.70;34.40;;;;;;;-8.65;84.19;95949.19;108016;1284;29222;-75
2021/12/28 06:54:29;;;;;;;54.40;27.40;;;;;;;-8.66;84.40;95953.58;108066;1283;31564;-75
2021/12/28 06:56:57;;;;;;;73.90;35.00;;;;;;;-8.63;84.46;95952.61;108016;1283;39830;-75
2021/12/28 06:59:25;;;;;;;67.20;34.60;;;;;;;-8.65;84.74;95956.22;108043;1282;41055;-75
2021/12/28 07:01:54;;;;;;;69.60;37.70;;;;;;;-8.66;84.37;95953.45;108098;1279;29264;-74
2021/12/28 07:04:22;;;;;;;77.00;40.30;;;;;;;-8.66;84.71;95949.63;108030;1283;39496;-74
2021/12/28 07:06:51;;;;;;;75.90;38.60;;;;;;;-8.64;84.72;95953.16;108052;1284;40786;-74
2021/12/28 07:09:19;;;;;;;76.70;39.10;;;;;;;-8.61;84.88;95951.48;108037;1282;42395;-74
2021/12/28 07:11:47;;;;;;;79.30;40.60;;;;;;;-8.59;84.99;95948.33;108036;1282;38531;-74
2021/12/28 07:14:16;;;;;;;82.90;41.00;;;;;;;-8.55;85.23;95945.48;108120;1284;27474;-74
2021/12/28 07:16:44;;;;;;;82.20;42.70;;;;;;;-8.46;85.20;95946.34;108020;1284;36048;-74
2021/12/28 07:19:13;;;;;;;89.80;45.70;;;;;;;-8.26;85.53;95940.69;108090;1283;42506;-74
2021/12/28 07:21:42;;;;;;;78.40;42.00;;;;;;;-8.00;85.65;95941.83;108207;1283;27769;-74
2021/12/28 07:24:10;;;;;;;62.30;33.00;;;;;;;-7.67;85.73;95941.86;108111;1283;47747;-74
2021/12/28 07:26:38;;;;;;;85.50;44.40;;;;;;;-7.32;85.90;95941.61;107995;1283;28436;-74
2021/12/28 07:29:07;;;;;;;79.20;43.10;;;;;;;-6.90;85.69;95942.11;107892;1284;45124;-75
2021/12/28 07:31:35;;;;;;;80.30;42.20;;;;;;;-6.49;85.23;95940.61;107990;1282;51720;-75
2021/12/28 07:34:04;;;;;;;77.10;42.30;;;;;;;-6.07;84.84;95941.61;104153;1284;5068793;-75
2021/12/28 07:36:34;;;;;;;79.50;42.60;;;;;;;-5.69;84.58;95946.48;108016;1283;34571;-75
2021/12/28 07:39:04;;;;;;;79.40;41.00;;;;;;;-5.29;84.24;95945.02;107918;1284;30736;-75
2021/12/28 07:41:33;;;;;;;82.90;45.00;;;;;;;-4.94;83.78;95947.79;107926;1284;30056;-75
2021/12/28 07:44:01;;;;;;;83.80;42.50;;;;;;;-4.62;82.94;95949.98;107916;1283;37154;-75
2021/12/28 07:46:30;;;;;;;90.10;44.10;;;;;;;-4.31;82.65;95946.90;107927;1283;30062;-75
2021/12/28 07:48:58;;;;;;;82.50;41.80;;;;;;;-4.04;82.22;95946.18;107877;1282;37120;-75
2021/12/28 07:51:28;;;;;;;88.90;44.70;;;;;;;-3.78;81.90;95941.20;108039;1283;35873;-75
2021/12/28 07:53:56;;;;;;;76.10;43.20;;;;;;;-3.60;81.27;95941.81;107921;1284;31347;-74
2021/12/28 07:56:24;;;;;;;89.20;43.30;;;;;;;-3.40;81.30;95940.62;107879;1281;41561;-75
2021/12/28 07:58:52;;;;;;;90.00;47.60;;;;;;;-3.23;81.02;95938.30;107935;1283;28633;-74
2021/12/28 08:01:20;;;;;;;100.10;49.40;;;;;;;-3.17;80.24;95933.77;107942;1283;27695;-74
2021/12/28 08:03:49;;;;;;;88.80;44.30;;;;;;;-3.16;79.87;95929.92;107908;1283;38514;-74
2021/12/28 08:06:17;;;;;;;85.70;44.20;;;;;;;-3.10;79.53;95931.98;107940;1282;29423;-75
2021/12/28 08:08:45;;;;;;;88.20;45.30;;;;;;;-3.07;79.43;95933.14;107927;1284;31637;-75
2021/12/28 08:11:13;;;;;;;89.00;45.60;;;;;;;-3.03;79.13;95929.09;107990;1284;30509;-75
2021/12/28 08:13:41;;;;;;;88.80;45.90;;;;;;;-2.89;79.23;95928.41;107972;1282;35688;-75
2021/12/28 08:16:09;;;;;;;84.40;46.00;;;;;;;-2.78;79.09;95925.77;107930;1283;34187;-75
2021/12/28 08:18:37;;;;;;;88.90;46.30;;;;;;;-2.81;78.69;95924.46;108068;1284;38414;-75
2021/12/28 08:21:08;;;;;;;92.10;47.20;;;;;;;-2.91;78.39;95931.36;107925;1284;35952;-75
2021/12/28 08:23:36;;;;;;;92.70;48.40;;;;;;;-3.04;78.14;95936.12;107914;1284;36280;-75
2021/12/28 08:26:04;;;;;;;95.40;48.20;;;;;;;-3.07;78.35;95933.98;107919;1283;34207;-75
2021/12/28 08:28:32;;;;;;;101.30;49.50;;;;;;;-3.04;78.06;95935.20;107883;1283;34877;-75
2021/12/28 08:31:01;;;;;;;97.20;52.20;;;;;;;-3.17;77.84;95936.52;107866;1283;40194;-75
2021/12/28 08:33:29;;;;;;;93.70;50.60;;;;;;;-3.26;77.88;95931.77;107925;1284;39855;-75
2021/12/28 08:35:57;;;;;;;103.70;51.30;;;;;;;-3.47;77.45;95932.80;108044;1283;35946;-75
2021/12/28 08:38:25;;;;;;;156.20;78.00;;;;;;;-3.75;77.30;95935.30;107893;1283;38540;-75
2021/12/28 08:40:56;;;;;;;101.30;54.30;;;;;;;-3.94;77.43;95937.52;107890;1284;31166;-75
2021/12/28 08:43:25;;;;;;;97.00;50.60;;;;;;;-4.06;77.45;95938.11;108015;1284;43795;-75
2021/12/28 08:45:54;;;;;;;102.00;51.50;;;;;;;-4.02;77.87;95934.11;107895;1283;44393;-75
2021/12/28 08:48:23;;;;;;;103.00;54.60;;;;;;;-3.97;77.95;95932.26;107947;1284;45783;-75
2021/12/28 08:50:52;;;;;;;82.70;42.80;;;;;;;-4.03;77.63;95929.06;108072;1282;31212;-75
2021/12/28 08:53:20;;;;;;;124.20;65.50;;;;;;;-4.06;77.60;95926.20;107913;1283;31886;-75
2021/12/28 08:55:48;;;;;;;113.30;60.10;;;;;;;-4.09;77.57;95924.48;107929;1281;32832;-75
2021/12/28 08:58:17;;;;;;;105.90;60.50;;;;;;;-4.12;77.61;95921.27;107877;1284;34875;-75
2021/12/28 09:00:45;;;;;;;104.20;58.90;;;;;;;-4.10;77.68;95916.88;107915;1282;41553;-74
2021/12/28 09:03:13;;;;;;;134.60;69.30;;;;;;;-4.11;77.64;95916.36;107938;1283;42882;-75
2021/12/28 09:05:41;;;;;;;115.00;63.90;;;;;;;-4.12;77.61;95915.30;108000;1281;29471;-75
2021/12/28 09:08:13;;;;;;;117.40;61.40;;;;;;;-4.12;77.43;95912.90;108034;1283;36169;-75
2021/12/28 09:10:42;;;;;;;108.90;57.90;;;;;;;-4.26;77.15;95912.55;108128;1283;40330;-75
2021/12/28 09:13:11;;;;;;;121.00;59.30;;;;;;;-4.28;77.40;95907.58;108023;1283;34109;-75
2021/12/28 09:15:39;;;;;;;103.80;56.30;;;;;;;-4.26;77.52;95907.09;107970;1283;36580;-75
2021/12/28 09:18:08;;;;;;;112.40;59.30;;;;;;;-4.26;77.44;95902.46;107924;1283;46281;-75
2021/12/28 09:20:36;;;;;;;105.60;56.00;;;;;;;-4.32;77.08;95903.20;107950;1283;33380;-75
2021/12/28 09:23:05;;;;;;;108.70;59.70;;;;;;;-4.37;77.10;95899.27;107892;1283;33570;-75
2021/12/28 09:25:33;;;;;;;119.80;62.00;;;;;;;-4.28;77.39;95905.94;107895;1283;35937;-75
2021/12/28 09:28:02;;;;;;;123.90;66.40;;;;;;;-4.19;77.38;95904.09;107924;1282;35047;-74
2021/12/28 09:30:31;;;;;;;121.50;64.10;;;;;;;-4.15;77.30;95902.58;107906;1284;38266;-74
2021/12/28 09:32:59;;;;;;;116.30;63.20;;;;;;;-4.03;77.35;95901.85;107883;1283;36989;-74
2021/12/28 09:35:28;;;;;;;128.20;67.70;;;;;;;-3.87;77.43;95900.40;107920;1282;31160;-75
2021/12/28 09:37:56;;;;;;;129.20;68.30;;;;;;;-3.68;77.36;95894.16;107904;1283;41230;-75
2021/12/28 09:40:25;;;;;;;124.60;66.50;;;;;;;-3.51;77.37;95900.92;107907;1283;35008;-75
2021/12/28 09:42:55;;;;;;;125.00;67.90;;;;;;;-3.29;77.54;95897.55;107907;1283;36319;-74
2021/12/28 09:45:24;;;;;;;129.90;73.10;;;;;;;-3.18;77.01;95901.34;107916;1281;34286;-75
2021/12/28 09:47:52;;;;;;;127.60;67.20;;;;;;;-3.05;76.93;95899.02;107892;1283;36005;-75
2021/12/28 09:50:22;;;;;;;123.20;64.80;;;;;;;-2.81;77.15;95901.91;107906;1284;36915;-75
2021/12/28 09:52:52;;;;;;;120.80;62.80;;;;;;;-2.59;77.00;95900.27;107957;1283;29872;-75
2021/12/28 09:55:22;;;;;;;114.70;61.00;;;;;;;-2.43;76.70;95900.08;107894;1283;37921;-74
2021/12/28 09:57:52;;;;;;;109.90;57.50;;;;;;;-2.27;76.64;95899.49;107927;1283;32629;-75
2021/12/28 10:00:21;;;;;;;114.60;61.30;;;;;;;-2.22;76.02;95898.77;107933;1282;44338;-75
2021/12/28 10:02:51;;;;;;;111.50;59.20;;;;;;;-2.24;75.90;95893.20;107918;1284;34543;-75
2021/12/28 10:05:23;;;;;;;115.50;60.70;;;;;;;-2.10;75.73;95879.08;107947;1283;30064;-75
2021/12/28 10:07:56;;;;;;;106.00;56.60;;;;;;;-2.06;75.56;95878.10;107944;1283;29210;-75
2021/12/28 10:10:26;;;;;;;111.60;60.30;;;;;;;-2.07;74.84;95881.35;107983;1283;26149;-75
2021/12/28 10:12:57;;;;;;;128.40;65.90;;;;;;;-2.31;74.02;95876.13;107946;1281;33005;-75
2021/12/28 10:15:28;;;;;;;117.80;60.70;;;;;;;-2.39;74.78;95874.29;108052;1283;31556;-75
2021/12/28 10:18:01;;;;;;;112.70;59.80;;;;;;;-2.39;74.43;95877.92;107848;1283;60049;-75
2021/12/28 10:20:32;;;;;;;109.10;58.70;;;;;;;-2.30;74.82;95871.02;107981;1283;35304;-76
2021/12/28 10:23:02;;;;;;;118.50;63.30;;;;;;;-2.22;74.57;95872.05;107892;1283;36407;-76
2021/12/28 10:25:32;;;;;;;111.00;62.20;;;;;;;-2.05;74.98;95867.48;107937;1283;38921;-76
2021/12/28 10:28:03;;;;;;;110.50;57.00;;;;;;;-1.79;75.14;95862.17;107906;1283;34427;-75
2021/12/28 10:30:31;;;;;;;;;;;;;;;-1.54;74.73;95862.02;108042;1282;33360;-76
2021/12/28 10:33:04;;;;;;;110.50;56.10;;;;;;;-1.46;74.17;95861.80;107946;1283;30043;-76
2021/12/28 10:35:35;;;;;;;113.50;55.80;;;;;;;-1.65;72.58;95856.71;107874;1281;37365;-75
2021/12/28 10:38:07;;;;;;;102.00;55.00;;;;;;;-1.81;72.85;95856.33;107950;1283;42630;-75
2021/12/28 10:40:37;;;;;;;100.70;55.70;;;;;;;-1.77;73.04;95851.08;107948;1282;28027;-75
2021/12/28 10:43:08;;;;;;;114.50;56.20;;;;;;;-1.70;73.07;95845.83;107944;1282;29581;-74
2021/12/28 10:45:39;;;;;;;98.30;53.20;;;;;;;-1.63;73.16;95850.02;107933;1284;32487;-75
2021/12/28 10:48:15;;;;;;;102.60;53.10;;;;;;;-1.53;72.92;95852.54;107903;1282;42999;-75
2021/12/28 10:50:46;;;;;;;106.90;57.10;;;;;;;-1.54;72.84;95848.67;107995;1283;34343;-75
2021/12/28 10:53:23;;;;;;;107.70;58.10;;;;;;;-1.50;72.84;95847.41;107950;1284;31751;-75
2021/12/28 10:55:57;;;;;;;107.10;59.30;;;;;;;-1.47;72.37;95844.41;107944;1284;28720;-75
2021/12/28 10:58:32;;;;;;;107.50;56.90;;;;;;;-1.59;71.73;95840.17;107956;1284;37923;-74
2021/12/28 11:01:07;;;;;;;100.80;55.40;;;;;;;-1.76;71.64;95835.95;108101;1283;38693;-75
2021/12/28 11:03:37;;;;;;;116.80;60.30;;;;;;;-1.90;71.66;95832.61;107907;1282;39518;-75
2021/12/28 11:06:09;;;;;;;;;;;;;;;-1.98;71.68;95826.23;107985;1282;26908;-75
2021/12/28 11:08:38;;;;;;;96.90;52.20;;;;;;;-2.03;71.49;95818.91;107927;1281;30250;-75
2021/12/28 11:11:11;;;;;;;94.70;50.70;;;;;;;-1.94;72.09;95813.61;107901;1282;35103;-75
2021/12/28 11:13:39;;;;;;;96.00;48.30;;;;;;;-1.80;72.13;95815.42;107999;1282;34469;-75
2021/12/28 11:16:13;;;;;;;101.10;51.60;;;;;;;-1.65;72.33;95812.75;107935;1283;30445;-75
2021/12/28 11:18:44;;;;;;;89.80;49.70;;;;;;;-1.40;72.77;95810.32;107995;1281;38620;-75